createdAt,value
2023-04-16T00:00:09.414Z,5.45
2023-04-16T00:01:46.310Z,5.57
2023-04-16T00:03:19.700Z,5.75
2023-04-16T00:04:52.892Z,8.60
2023-04-16T00:06:26.195Z,5.72
2023-04-16T00:08:00.703Z,5.43
2023-04-16T00:09:33.828Z,5.15
2023-04-16T00:11:07.194Z,6.75
2023-04-16T00:12:40.326Z,5.97
2023-04-16T00:14:12.472Z,7.28
2023-04-16T00:15:45.746Z,5.78
2023-04-16T00:17:18.870Z,7.13
2023-04-16T00:18:51.913Z,6.63
2023-04-16T00:20:24.276Z,7.95
2023-04-16T00:21:57.336Z,5.90
2023-04-16T00:23:31.770Z,6.32
2023-04-16T00:25:05.979Z,8.10
2023-04-16T00:26:39.173Z,6.80
2023-04-16T00:28:11.306Z,6.28
2023-04-16T00:29:44.408Z,7.05
2023-04-16T00:31:17.495Z,6.25
2023-04-16T00:32:50.712Z,7.10
2023-04-16T00:34:24.087Z,6.30
2023-04-16T00:35:57.275Z,8.20
2023-04-16T00:37:31.716Z,6.80
2023-04-16T00:39:06.415Z,7.60
2023-04-16T00:40:39.789Z,7.15
2023-04-16T00:42:12.959Z,7.38
2023-04-16T00:43:46.261Z,7.22
2023-04-16T00:45:19.610Z,9.02
2023-04-16T00:46:53.228Z,8.07
2023-04-16T00:48:28.178Z,10.15
2023-04-16T00:50:00.524Z,9.23
2023-04-16T00:51:36.120Z,7.80
2023-04-16T00:53:09.726Z,9.05
2023-04-16T00:54:44.875Z,7.43
2023-04-16T00:56:18.189Z,9.57
2023-04-16T00:57:50.516Z,9.23
2023-04-16T00:59:24.006Z,9.52
2023-04-16T01:00:57.621Z,8.27
2023-04-16T01:02:31.179Z,8.90
2023-04-16T01:04:07.353Z,8.18
2023-04-16T01:05:41.085Z,10.15
2023-04-16T01:07:14.586Z,10.23
2023-04-16T01:08:48.856Z,10.32
2023-04-16T01:10:24.058Z,9.68
2023-04-16T01:13:29.732Z,9.25
2023-04-16T01:15:03.197Z,8.98
2023-04-16T01:16:36.909Z,8.65
2023-04-16T01:18:15.186Z,10.68
2023-04-16T01:19:48.510Z,8.65
2023-04-16T01:21:23.048Z,8.15
2023-04-16T01:22:56.471Z,8.32
2023-04-16T01:24:29.793Z,8.57
2023-04-16T01:26:03.095Z,9.52
2023-04-16T01:27:35.421Z,8.40
2023-04-16T01:29:08.841Z,8.35
2023-04-16T01:30:42.384Z,8.65
2023-04-16T01:32:36.444Z,8.27
2023-04-16T01:34:09.687Z,8.93
2023-04-16T01:35:43.467Z,8.68
2023-04-16T01:37:19.717Z,9.48
2023-04-16T01:38:52.972Z,9.63
2023-04-16T01:40:25.228Z,8.48
2023-04-16T01:41:58.398Z,7.03
2023-04-16T01:43:31.522Z,7.93
2023-04-16T01:45:05.325Z,7.80
2023-04-16T01:46:39.611Z,7.53
2023-04-16T01:48:13.266Z,7.80
2023-04-16T01:49:48.135Z,8.38
2023-04-16T01:51:21.349Z,6.40
2023-04-16T01:52:55.850Z,8.05
2023-04-16T01:54:29.140Z,7.03
2023-04-16T01:56:02.270Z,7.05
2023-04-16T01:57:34.532Z,7.22
2023-04-16T01:59:07.947Z,6.18
2023-04-16T02:00:45.954Z,7.30
2023-04-16T02:02:19.374Z,6.63
2023-04-16T02:03:52.880Z,7.53
2023-04-16T02:05:26.632Z,6.35
2023-04-16T02:06:58.872Z,6.75
2023-04-16T02:08:33.614Z,6.70
2023-04-16T02:10:10.382Z,7.57
2023-04-16T02:11:45.589Z,7.45
2023-04-16T02:13:18.899Z,6.80
2023-04-16T02:14:53.816Z,6.85
2023-04-16T02:16:28.056Z,7.55
2023-04-16T02:18:11.051Z,7.32
2023-04-16T02:19:44.625Z,8.23
2023-04-16T02:21:18.957Z,8.38
2023-04-16T02:22:52.479Z,9.82
2023-04-16T02:24:29.897Z,8.70
2023-04-16T02:26:04.905Z,8.13
2023-04-16T02:27:38.227Z,7.55
2023-04-16T02:29:25.948Z,8.50
2023-04-16T02:31:08.436Z,8.38
2023-04-16T02:32:46.604Z,8.10
2023-04-16T02:34:20.692Z,8.43
2023-04-16T02:35:54.362Z,8.75
2023-04-16T02:37:26.488Z,9.32
2023-04-16T02:39:00.249Z,11.27
2023-04-16T02:40:33.862Z,10.45
2023-04-16T02:42:06.980Z,11.10
2023-04-16T02:43:40.732Z,11.23
2023-04-16T02:45:14.336Z,9.57
2023-04-16T02:46:47.671Z,10.15
2023-04-16T02:48:20.914Z,10.13
2023-04-16T02:49:54.033Z,10.98
2023-04-16T02:51:27.654Z,12.32
2023-04-16T02:53:01.059Z,10.63
2023-04-16T02:54:34.287Z,13.05
2023-04-16T02:56:09.249Z,11.50
2023-04-16T02:57:42.674Z,10.48
2023-04-16T02:59:15.920Z,9.77
2023-04-16T03:00:49.502Z,10.43
2023-04-16T03:02:22.846Z,10.80
2023-04-16T03:03:56.307Z,9.90
2023-04-16T03:05:29.505Z,11.23
2023-04-16T03:07:02.700Z,10.27
2023-04-16T03:08:35.899Z,9.10
2023-04-16T03:10:11.868Z,10.70
2023-04-16T03:11:46.426Z,11.65
2023-04-16T03:13:19.545Z,12.10
2023-04-16T03:14:53.239Z,11.55
2023-04-16T03:16:26.950Z,11.35
2023-04-16T03:18:00.406Z,10.45
2023-04-16T03:19:33.658Z,11.50
2023-04-16T03:21:07.436Z,10.95
2023-04-16T03:22:40.650Z,10.18
2023-04-16T03:24:13.770Z,10.88
2023-04-16T03:25:48.173Z,9.63
2023-04-16T03:27:25.800Z,10.68
2023-04-16T03:28:59.412Z,9.10
2023-04-16T03:30:33.750Z,9.50
2023-04-16T03:32:07.242Z,9.45
2023-04-16T03:33:40.528Z,10.85
2023-04-16T03:35:12.783Z,10.00
2023-04-16T03:36:46.288Z,10.07
2023-04-16T03:38:18.656Z,11.05
2023-04-16T03:39:52.848Z,9.88
2023-04-16T03:41:26.058Z,9.88
2023-04-16T03:43:00.581Z,9.77
2023-04-16T03:44:34.860Z,9.55
2023-04-16T03:46:08.738Z,13.10
2023-04-16T03:47:41.339Z,9.38
2023-04-16T03:49:15.575Z,11.40
2023-04-16T03:50:49.132Z,13.73
2023-04-16T03:52:24.057Z,11.77
2023-04-16T03:53:57.902Z,11.18
2023-04-16T03:55:32.090Z,11.18
2023-04-16T03:57:05.601Z,11.48
2023-04-16T03:58:40.800Z,13.82
2023-04-16T04:00:15.189Z,12.65
2023-04-16T04:01:56.824Z,13.75
2023-04-16T04:03:30.356Z,13.60
2023-04-16T04:05:04.096Z,12.02
2023-04-16T04:06:37.721Z,12.60
2023-04-16T04:08:10.971Z,12.68
2023-04-16T04:09:44.273Z,12.70
2023-04-16T04:11:17.448Z,11.80
2023-04-16T04:12:51.031Z,10.63
2023-04-16T04:14:25.567Z,11.82
2023-04-16T04:15:58.832Z,13.02
2023-04-16T04:17:33.662Z,12.52
2023-04-16T04:19:07.826Z,13.48
2023-04-16T04:20:40.864Z,11.80
2023-04-16T04:22:14.690Z,13.40
2023-04-16T04:23:47.803Z,13.45
2023-04-16T04:25:21.113Z,14.63
2023-04-16T04:26:54.249Z,13.10
2023-04-16T04:28:27.836Z,14.85
2023-04-16T04:30:02.716Z,14.32
2023-04-16T04:33:09.533Z,11.48
2023-04-16T04:34:44.662Z,11.18
2023-04-16T04:36:18.034Z,13.57
2023-04-16T04:37:50.639Z,12.52
2023-04-16T04:41:00.220Z,11.30
2023-04-16T04:42:35.298Z,10.75
2023-04-16T04:44:08.545Z,13.52
2023-04-16T04:45:43.420Z,15.00
2023-04-16T04:47:17.098Z,15.05
2023-04-16T04:48:50.486Z,12.07
2023-04-16T04:50:22.835Z,12.05
2023-04-16T04:51:55.984Z,13.50
2023-04-16T04:53:29.172Z,14.15
2023-04-16T04:55:02.324Z,16.15
2023-04-16T04:56:36.377Z,15.18
2023-04-16T04:58:09.860Z,14.38
2023-04-16T04:59:43.656Z,14.13
2023-04-16T05:01:19.772Z,13.48
2023-04-16T05:02:53.027Z,15.93
2023-04-16T05:04:26.407Z,15.25
2023-04-16T05:05:59.610Z,14.65
2023-04-16T05:07:33.450Z,13.25
2023-04-16T05:09:11.412Z,12.35
2023-04-16T05:10:44.839Z,12.80
2023-04-16T05:12:17.990Z,15.77
2023-04-16T05:13:51.088Z,14.45
2023-04-16T05:15:24.408Z,14.45
2023-04-16T05:16:58.992Z,15.95
2023-04-16T05:18:33.517Z,15.15
2023-04-16T05:20:08.629Z,14.32
2023-04-16T05:21:46.028Z,15.20
2023-04-16T05:23:19.399Z,16.90
2023-04-16T05:24:52.566Z,15.65
2023-04-16T05:26:25.779Z,15.13
2023-04-16T05:27:59.129Z,16.40
2023-04-16T05:29:32.513Z,17.50
2023-04-16T05:31:06.304Z,17.80
2023-04-16T05:32:42.123Z,19.38
2023-04-16T05:34:33.129Z,13.95
2023-04-16T05:36:21.349Z,15.82
2023-04-16T05:37:54.869Z,18.55
2023-04-16T05:39:28.066Z,17.45
2023-04-16T05:41:01.251Z,16.95
2023-04-16T05:42:34.537Z,17.15
2023-04-16T05:44:07.698Z,16.23
2023-04-16T05:45:41.407Z,17.08
2023-04-16T05:47:14.857Z,17.70
2023-04-16T05:48:49.399Z,16.60
2023-04-16T05:50:22.563Z,18.77
2023-04-16T05:51:54.716Z,20.02
2023-04-16T05:53:27.871Z,21.45
2023-04-16T05:55:01.797Z,20.98
2023-04-16T05:56:35.206Z,20.52
2023-04-16T05:58:08.345Z,20.85
2023-04-16T05:59:41.805Z,23.00
2023-04-16T06:01:14.936Z,24.40
2023-04-16T06:02:48.245Z,24.10
2023-04-16T06:04:22.924Z,20.75
2023-04-16T06:05:56.388Z,22.45
2023-04-16T06:07:29.649Z,20.70
2023-04-16T06:09:02.791Z,18.45
2023-04-16T06:10:35.189Z,22.95
2023-04-16T06:12:08.540Z,22.88
2023-04-16T06:13:41.753Z,18.83
2023-04-16T06:15:14.970Z,20.52
2023-04-16T06:16:48.290Z,21.02
2023-04-16T06:18:21.430Z,22.98
2023-04-16T06:19:55.875Z,20.25
2023-04-16T06:21:31.669Z,22.50
2023-04-16T06:23:04.754Z,22.33
2023-04-16T06:24:38.004Z,22.67
2023-04-16T06:26:12.764Z,22.15
2023-04-16T06:27:45.985Z,20.48
2023-04-16T06:29:19.118Z,22.77
2023-04-16T06:30:52.736Z,22.70
2023-04-16T06:32:26.404Z,20.48
2023-04-16T06:33:59.861Z,23.35
2023-04-16T06:35:34.450Z,22.58
2023-04-16T06:37:10.336Z,20.75
2023-04-16T06:38:44.356Z,23.50
2023-04-16T06:40:17.818Z,26.08
2023-04-16T06:41:51.228Z,24.77
2023-04-16T06:43:24.656Z,23.33
2023-04-16T06:44:57.864Z,25.95
2023-04-16T06:46:31.117Z,23.15
2023-04-16T06:48:05.273Z,22.95
2023-04-16T06:49:39.768Z,25.10
2023-04-16T06:51:14.352Z,23.42
2023-04-16T06:52:47.631Z,22.00
2023-04-16T06:54:20.756Z,21.83
2023-04-16T06:55:53.930Z,26.23
2023-04-16T06:57:27.016Z,23.67
2023-04-16T06:59:00.926Z,22.67
2023-04-16T07:00:34.149Z,23.48
2023-04-16T07:02:09.224Z,22.80
2023-04-16T07:03:42.457Z,23.20
2023-04-16T07:05:15.986Z,22.52
2023-04-16T07:06:50.595Z,23.45
2023-04-16T07:08:24.404Z,22.05
2023-04-16T07:09:57.519Z,24.33
2023-04-16T07:11:31.185Z,23.30
2023-04-16T07:13:04.412Z,23.40
2023-04-16T07:14:37.524Z,21.45
2023-04-16T07:16:10.662Z,22.63
2023-04-16T07:17:43.880Z,22.55
2023-04-16T07:19:17.124Z,21.75
2023-04-16T07:20:50.309Z,21.10
2023-04-16T07:22:24.874Z,21.15
2023-04-16T07:23:58.088Z,20.25
2023-04-16T07:25:31.327Z,21.17
2023-04-16T07:27:04.740Z,20.52
2023-04-16T07:28:37.925Z,22.45
2023-04-16T07:30:11.813Z,21.98
2023-04-16T07:31:45.925Z,22.88
2023-04-16T07:33:19.226Z,22.77
2023-04-16T07:34:52.409Z,20.75
2023-04-16T07:36:27.392Z,20.55
2023-04-16T07:38:01.992Z,18.83
2023-04-16T07:39:35.405Z,20.65
2023-04-16T07:41:09.093Z,23.30
2023-04-16T07:42:42.346Z,20.58
2023-04-16T07:44:15.498Z,20.08
2023-04-16T07:45:48.704Z,18.67
2023-04-16T07:47:23.277Z,19.15
2023-04-16T07:48:56.525Z,20.10
2023-04-16T07:50:29.635Z,17.27
2023-04-16T07:52:03.734Z,22.42
2023-04-16T07:53:38.301Z,21.35
2023-04-16T07:55:11.512Z,18.95
2023-04-16T07:56:45.070Z,23.33
2023-04-16T07:58:18.234Z,23.70
2023-04-16T07:59:52.096Z,25.27
2023-04-16T08:01:25.618Z,26.58
2023-04-16T08:02:59.111Z,21.65
2023-04-16T08:04:32.668Z,22.58
2023-04-16T08:06:06.000Z,19.25
2023-04-16T08:07:39.194Z,20.23
2023-04-16T08:09:13.660Z,20.13
2023-04-16T08:10:47.052Z,21.17
2023-04-16T08:12:19.366Z,19.83
2023-04-16T08:13:52.693Z,21.92
2023-04-16T08:15:26.787Z,20.90
2023-04-16T08:17:00.044Z,18.35
2023-04-16T08:18:33.187Z,19.08
2023-04-16T08:20:08.026Z,17.70
2023-04-16T08:23:14.334Z,21.00
2023-04-16T08:24:49.036Z,21.73
2023-04-16T08:26:22.162Z,21.60
2023-04-16T08:27:55.266Z,19.80
2023-04-16T08:29:28.412Z,24.10
2023-04-16T08:31:01.647Z,25.00
2023-04-16T08:32:35.312Z,21.10
2023-04-16T08:34:08.696Z,20.35
2023-04-16T08:35:42.071Z,23.95
2023-04-16T08:37:15.361Z,25.27
2023-04-16T08:38:48.496Z,26.55
2023-04-16T08:40:23.223Z,24.40
2023-04-16T08:41:58.450Z,23.73
2023-04-16T08:43:35.047Z,22.15
2023-04-16T08:45:14.903Z,23.08
2023-04-16T08:46:48.496Z,24.92
2023-04-16T08:48:23.490Z,21.83
2023-04-16T08:50:00.185Z,80.88
2023-04-16T08:51:36.636Z,35.88
2023-04-16T08:53:15.613Z,32.58
2023-04-16T08:55:01.937Z,25.52
2023-04-16T08:56:38.481Z,21.77
2023-04-16T08:58:16.282Z,22.02
2023-04-16T08:59:50.911Z,20.95
2023-04-16T09:01:26.510Z,20.08
2023-04-16T09:03:00.218Z,21.55
2023-04-16T09:04:35.251Z,19.30
2023-04-16T09:06:10.693Z,19.80
2023-04-16T09:07:45.273Z,18.08
2023-04-16T09:09:20.887Z,21.92
2023-04-16T09:10:56.420Z,21.73
2023-04-16T09:12:31.869Z,19.80
2023-04-16T09:14:05.771Z,20.85
2023-04-16T09:15:40.616Z,20.05
2023-04-16T09:18:48.396Z,17.25
2023-04-16T09:20:22.036Z,17.67
2023-04-16T09:21:55.253Z,20.00
2023-04-16T09:23:28.527Z,18.23
2023-04-16T09:25:01.692Z,21.67
2023-04-16T09:26:35.809Z,20.67
2023-04-16T09:28:10.729Z,20.10
2023-04-16T09:29:43.900Z,21.25
2023-04-16T09:31:18.858Z,21.10
2023-04-16T09:32:53.966Z,18.52
2023-04-16T09:34:27.338Z,18.48
2023-04-16T09:36:00.538Z,21.27
2023-04-16T09:37:33.629Z,20.65
2023-04-16T09:39:06.774Z,19.48
2023-04-16T09:40:40.356Z,18.98
2023-04-16T09:42:15.295Z,20.42
2023-04-16T09:45:33.814Z,21.63
2023-04-16T09:47:09.105Z,23.17
2023-04-16T09:48:42.292Z,21.45
2023-04-16T09:50:18.797Z,23.88
2023-04-16T09:51:56.182Z,21.15
2023-04-16T09:53:31.292Z,21.38
2023-04-16T09:55:05.111Z,20.75
2023-04-16T09:56:42.868Z,24.80
2023-04-16T09:58:20.459Z,19.90
2023-04-16T09:59:57.966Z,20.08
2023-04-16T10:01:32.135Z,18.55
2023-04-16T10:03:07.052Z,21.40
2023-04-16T10:04:52.106Z,22.80
2023-04-16T10:06:27.117Z,19.48
2023-04-16T10:08:02.205Z,23.90
2023-04-16T10:09:39.556Z,19.95
2023-04-16T10:11:13.017Z,21.30
2023-04-16T10:12:46.140Z,19.83
2023-04-16T10:14:19.288Z,21.65
2023-04-16T10:15:54.286Z,19.20
2023-04-16T10:17:29.760Z,21.17
2023-04-16T10:19:03.219Z,23.30
2023-04-16T10:20:38.035Z,21.35
2023-04-16T10:22:12.643Z,27.80
2023-04-16T10:23:46.287Z,25.73
2023-04-16T10:25:20.314Z,25.35
2023-04-16T10:26:54.141Z,22.77
2023-04-16T10:28:28.990Z,21.02
2023-04-16T10:31:38.234Z,21.33
2023-04-16T10:33:11.707Z,20.95
2023-04-16T10:34:45.018Z,22.08
2023-04-16T10:36:26.558Z,20.90
2023-04-16T10:38:22.831Z,24.40
2023-04-16T10:39:55.993Z,20.25
2023-04-16T10:41:29.592Z,20.30
2023-04-16T10:43:02.954Z,18.77
2023-04-16T10:44:36.515Z,20.92
2023-04-16T10:46:23.955Z,20.33
2023-04-16T10:47:58.826Z,19.17
2023-04-16T10:49:32.097Z,17.95
2023-04-16T10:51:06.944Z,20.30
2023-04-16T10:52:41.610Z,16.70
2023-04-16T10:54:30.889Z,22.27
2023-04-16T10:56:13.732Z,20.90
2023-04-16T10:57:50.786Z,18.92
2023-04-16T10:59:25.674Z,20.33
2023-04-16T11:02:33.797Z,18.02
2023-04-16T11:04:31.448Z,18.35
2023-04-16T11:06:17.366Z,16.90
2023-04-16T11:07:50.462Z,18.83
2023-04-16T11:09:47.626Z,19.52
2023-04-16T11:11:22.632Z,19.75
2023-04-16T11:12:57.056Z,18.65
2023-04-16T11:14:30.298Z,19.90
2023-04-16T11:16:03.634Z,17.20
2023-04-16T11:17:40.368Z,21.90
2023-04-16T11:19:18.480Z,20.02
2023-04-16T11:20:54.140Z,19.65
2023-04-16T11:22:28.363Z,17.90
2023-04-16T11:24:01.480Z,16.35
2023-04-16T11:25:35.124Z,17.27
2023-04-16T11:27:08.320Z,16.63
2023-04-16T11:28:41.643Z,17.13
2023-04-16T11:30:15.310Z,16.98
2023-04-16T11:31:52.482Z,16.48
2023-04-16T11:33:26.613Z,17.02
2023-04-16T11:35:03.445Z,15.02
2023-04-16T11:36:45.970Z,17.08
2023-04-16T11:38:19.811Z,16.30
2023-04-16T11:39:54.098Z,17.75
2023-04-16T11:41:27.255Z,15.00
2023-04-16T11:43:03.911Z,17.27
2023-04-16T11:44:37.545Z,15.65
2023-04-16T11:46:20.426Z,15.43
2023-04-16T11:47:59.876Z,16.63
2023-04-16T11:49:33.080Z,17.30
2023-04-16T11:51:06.595Z,17.40
2023-04-16T11:52:40.997Z,17.60
2023-04-16T11:54:21.406Z,14.90
2023-04-16T11:55:54.592Z,14.57
2023-04-16T11:57:29.317Z,15.00
2023-04-16T11:59:14.367Z,15.90
2023-04-16T12:00:49.061Z,13.52
2023-04-16T12:02:39.787Z,13.73
2023-04-16T12:04:14.962Z,14.75
2023-04-16T12:05:48.380Z,15.98
2023-04-16T12:07:21.565Z,15.57
2023-04-16T12:08:56.049Z,15.95
2023-04-16T12:10:30.075Z,16.63
2023-04-16T12:12:03.517Z,16.13
2023-04-16T12:13:39.802Z,18.48
2023-04-16T12:15:13.078Z,20.15
2023-04-16T12:16:46.271Z,19.25
2023-04-16T12:18:22.453Z,17.60
2023-04-16T12:19:59.091Z,16.83
2023-04-16T12:21:39.618Z,15.98
2023-04-16T12:25:01.357Z,14.13
2023-04-16T12:26:41.109Z,17.52
2023-04-16T12:28:16.407Z,16.95
2023-04-16T12:30:06.852Z,17.25
2023-04-16T12:31:40.076Z,18.67
2023-04-16T12:33:19.503Z,17.08
2023-04-16T12:34:52.635Z,18.38
2023-04-16T12:36:26.133Z,19.80
2023-04-16T12:37:59.700Z,16.73
2023-04-16T12:39:32.979Z,16.05
2023-04-16T12:41:07.391Z,17.00
2023-04-16T12:42:40.697Z,18.65
2023-04-16T12:44:18.092Z,17.13
2023-04-16T12:45:51.282Z,15.48
2023-04-16T12:47:24.449Z,14.80
2023-04-16T12:48:57.594Z,16.38
2023-04-16T12:50:30.725Z,16.08
2023-04-16T12:52:03.408Z,17.42
2023-04-16T12:53:36.774Z,16.98
2023-04-16T12:55:22.893Z,17.38
2023-04-16T12:56:57.511Z,15.13
2023-04-16T12:58:30.867Z,16.27
2023-04-16T13:00:06.218Z,17.33
2023-04-16T13:01:40.190Z,16.63
2023-04-16T13:03:13.848Z,17.80
2023-04-16T13:04:47.291Z,14.80
2023-04-16T13:06:21.517Z,15.38
2023-04-16T13:07:55.527Z,16.17
2023-04-16T13:09:29.025Z,13.75
2023-04-16T13:11:02.676Z,15.45
2023-04-16T13:12:37.517Z,14.77
2023-04-16T13:14:10.740Z,16.15
2023-04-16T13:15:43.965Z,15.80
2023-04-16T13:17:17.526Z,14.73
2023-04-16T13:18:51.333Z,14.85
2023-04-16T13:20:24.723Z,15.20
2023-04-16T13:21:58.337Z,14.27
2023-04-16T13:23:32.005Z,13.70
2023-04-16T13:25:06.555Z,14.05
2023-04-16T13:26:39.823Z,14.13
2023-04-16T13:28:14.664Z,13.32
2023-04-16T13:29:47.980Z,15.57
2023-04-16T13:31:22.211Z,12.75
2023-04-16T13:32:56.057Z,13.27
2023-04-16T13:34:29.405Z,14.13
2023-04-16T13:36:02.884Z,13.45
2023-04-16T13:37:36.244Z,13.82
2023-04-16T13:39:11.378Z,15.93
2023-04-16T13:40:45.358Z,14.60
2023-04-16T13:42:18.998Z,13.80
2023-04-16T13:43:55.311Z,15.50
2023-04-16T13:45:28.828Z,14.88
2023-04-16T13:47:02.296Z,14.32
2023-04-16T13:48:35.899Z,14.75
2023-04-16T13:50:10.041Z,16.30
2023-04-16T13:51:45.165Z,14.23
2023-04-16T13:53:18.654Z,13.52
2023-04-16T13:54:51.874Z,13.65
2023-04-16T13:56:28.154Z,14.77
2023-04-16T13:58:01.811Z,14.68
2023-04-16T13:59:36.483Z,13.68
2023-04-16T14:01:10.815Z,15.27
2023-04-16T14:02:45.868Z,13.10
2023-04-16T14:04:19.428Z,14.30
2023-04-16T14:05:52.760Z,15.60
2023-04-16T14:07:27.311Z,16.35
2023-04-16T14:09:01.456Z,15.20
2023-04-16T14:10:34.768Z,17.15
2023-04-16T14:12:08.561Z,14.85
2023-04-16T14:13:42.641Z,12.73
2023-04-16T14:15:17.304Z,14.43
2023-04-16T14:18:24.032Z,15.98
2023-04-16T14:19:57.302Z,13.82
2023-04-16T14:21:31.413Z,14.85
2023-04-16T14:23:04.902Z,12.80
2023-04-16T14:24:38.160Z,13.15
2023-04-16T14:26:11.722Z,14.48
2023-04-16T14:27:45.261Z,12.23
2023-04-16T14:29:18.600Z,13.77
2023-04-16T14:30:53.444Z,16.30
2023-04-16T14:34:00.126Z,14.85
2023-04-16T14:35:33.822Z,13.18
2023-04-16T14:37:07.201Z,12.07
2023-04-16T14:38:41.037Z,13.05
2023-04-16T14:40:14.477Z,14.95
2023-04-16T14:41:47.721Z,13.73
2023-04-16T14:43:20.965Z,12.43
2023-04-16T14:44:54.358Z,13.77
2023-04-16T14:46:28.984Z,11.32
2023-04-16T14:48:02.325Z,14.45
2023-04-16T14:49:36.529Z,13.80
2023-04-16T14:51:10.260Z,14.27
2023-04-16T14:52:43.529Z,15.65
2023-04-16T14:54:16.861Z,15.27
2023-04-16T14:55:50.418Z,16.02
2023-04-16T14:57:23.906Z,13.30
2023-04-16T14:58:57.353Z,12.80
2023-04-16T15:00:31.414Z,12.48
2023-04-16T15:02:06.669Z,11.32
2023-04-16T15:03:40.200Z,13.27
2023-04-16T15:05:13.429Z,12.38
2023-04-16T15:06:46.810Z,14.63
2023-04-16T15:08:20.390Z,12.63
2023-04-16T15:09:54.009Z,12.18
2023-04-16T15:11:28.373Z,12.02
2023-04-16T15:13:01.626Z,12.55
2023-04-16T15:14:34.930Z,13.35
2023-04-16T15:16:08.401Z,15.23
2023-04-16T15:17:44.665Z,12.73
2023-04-16T15:19:18.484Z,11.98
2023-04-16T15:20:51.844Z,12.50
2023-04-16T15:22:25.249Z,13.52
2023-04-16T15:23:58.709Z,12.18
2023-04-16T15:25:32.043Z,11.45
2023-04-16T15:27:07.163Z,11.77
2023-04-16T15:28:41.245Z,14.18
2023-04-16T15:30:15.597Z,13.30
2023-04-16T15:31:49.280Z,12.15
2023-04-16T15:33:23.893Z,14.63
2023-04-16T15:34:57.158Z,13.35
2023-04-16T15:36:30.549Z,13.32
2023-04-16T15:38:04.126Z,13.40
2023-04-16T15:39:37.395Z,11.77
2023-04-16T15:41:11.492Z,10.80
2023-04-16T15:42:45.013Z,13.23
2023-04-16T15:44:18.364Z,12.82
2023-04-16T15:45:51.566Z,12.65
2023-04-16T15:47:25.065Z,13.43
2023-04-16T15:48:59.681Z,15.27
2023-04-16T15:50:34.291Z,12.55
2023-04-16T15:52:07.635Z,11.65
2023-04-16T15:53:41.240Z,11.38
2023-04-16T15:55:15.982Z,11.43
2023-04-16T15:58:23.189Z,10.80
2023-04-16T16:00:06.321Z,11.48
2023-04-16T16:01:40.796Z,10.82
2023-04-16T16:03:14.514Z,13.38
2023-04-16T16:04:49.384Z,10.70
2023-04-16T16:06:22.727Z,12.10
2023-04-16T16:07:56.035Z,12.15
2023-04-16T16:09:29.296Z,10.77
2023-04-16T16:11:02.890Z,11.52
2023-04-16T16:12:36.305Z,10.70
2023-04-16T16:14:09.756Z,11.32
2023-04-16T16:15:43.733Z,11.23
2023-04-16T16:17:17.818Z,11.50
2023-04-16T16:18:51.717Z,10.88
2023-04-16T16:20:27.353Z,9.38
2023-04-16T16:22:00.673Z,10.02
2023-04-16T16:23:34.132Z,10.68
2023-04-16T16:25:09.976Z,9.77
2023-04-16T16:26:43.452Z,10.57
2023-04-16T16:28:16.751Z,9.93
2023-04-16T16:29:50.006Z,10.38
2023-04-16T16:31:23.281Z,11.43
2023-04-16T16:32:56.628Z,9.85
2023-04-16T16:34:29.870Z,9.30
2023-04-16T16:36:06.006Z,9.93
2023-04-16T16:37:39.796Z,10.07
2023-04-16T16:39:13.044Z,10.15
2023-04-16T16:40:46.370Z,10.85
2023-04-16T16:42:19.573Z,9.95
2023-04-16T16:43:56.251Z,11.20
2023-04-16T16:45:30.505Z,11.15
2023-04-16T16:47:03.885Z,9.20
2023-04-16T16:48:37.403Z,8.25
2023-04-16T16:50:12.354Z,8.60
2023-04-16T16:51:48.197Z,9.40
2023-04-16T16:53:21.479Z,9.20
2023-04-16T16:54:56.590Z,10.23
2023-04-16T16:56:29.837Z,8.57
2023-04-16T16:58:03.571Z,10.40
2023-04-16T16:59:36.837Z,10.27
2023-04-16T17:01:10.348Z,11.27
2023-04-16T17:02:44.432Z,10.25
2023-04-16T17:04:20.169Z,9.07
2023-04-16T17:05:53.810Z,8.77
2023-04-16T17:07:28.379Z,8.80
2023-04-16T17:09:01.634Z,8.88
2023-04-16T17:10:36.425Z,9.07
2023-04-16T17:13:42.912Z,7.35
2023-04-16T17:15:17.244Z,7.72
2023-04-16T17:16:51.896Z,10.02
2023-04-16T17:18:25.424Z,8.60
2023-04-16T17:20:01.039Z,8.32
2023-04-16T17:21:34.358Z,8.23
2023-04-16T17:23:09.261Z,10.27
2023-04-16T17:24:42.765Z,8.57
2023-04-16T17:26:16.048Z,9.02
2023-04-16T17:27:49.553Z,9.00
2023-04-16T17:29:26.237Z,8.32
2023-04-16T17:30:59.658Z,8.35
2023-04-16T17:32:34.332Z,9.43
2023-04-16T17:34:07.692Z,8.23
2023-04-16T17:35:41.399Z,9.57
2023-04-16T17:37:14.994Z,10.88
2023-04-16T17:38:50.222Z,10.32
2023-04-16T17:40:23.583Z,8.82
2023-04-16T17:41:58.491Z,11.13
2023-04-16T17:43:32.056Z,8.40
2023-04-16T17:45:06.433Z,9.00
2023-04-16T17:46:39.779Z,9.68
2023-04-16T17:48:13.157Z,8.55
2023-04-16T17:49:46.442Z,8.95
2023-04-16T17:51:19.677Z,9.40
2023-04-16T17:52:53.174Z,9.57
2023-04-16T17:54:27.724Z,8.18
2023-04-16T17:56:01.186Z,8.70
2023-04-16T17:57:35.003Z,8.32
2023-04-16T17:59:08.259Z,9.55
2023-04-16T18:00:42.359Z,7.65
2023-04-16T18:02:15.941Z,9.85
2023-04-16T18:03:49.434Z,9.20
2023-04-16T18:05:23.309Z,10.05
2023-04-16T18:06:56.829Z,12.48
2023-04-16T18:08:30.502Z,9.30
2023-04-16T18:10:05.945Z,11.88
2023-04-16T18:11:39.215Z,9.43
2023-04-16T18:13:12.428Z,9.27
2023-04-16T18:14:46.092Z,9.52
2023-04-16T18:16:19.658Z,8.45
2023-04-16T18:17:54.214Z,10.15
2023-04-16T18:19:27.523Z,10.60
2023-04-16T18:21:00.984Z,11.13
2023-04-16T18:22:34.244Z,10.98
2023-04-16T18:24:08.370Z,10.63
2023-04-16T18:25:43.053Z,9.13
2023-04-16T18:27:16.456Z,10.70
2023-04-16T18:28:49.676Z,8.70
2023-04-16T18:30:26.616Z,9.75
2023-04-16T18:32:00.381Z,19.02
2023-04-16T18:33:52.734Z,16.20
2023-04-16T18:35:29.412Z,11.98
2023-04-16T18:37:02.848Z,13.20
2023-04-16T18:38:39.628Z,16.20
2023-04-16T18:40:20.206Z,9.60
2023-04-16T18:41:54.982Z,8.60
2023-04-16T18:43:29.019Z,8.57
2023-04-16T18:45:02.518Z,9.13
2023-04-16T18:46:36.267Z,10.57
2023-04-16T18:48:09.508Z,10.98
2023-04-16T18:49:42.997Z,10.35
2023-04-16T18:51:16.709Z,12.50
2023-04-16T18:52:50.303Z,13.85
2023-04-16T18:54:23.707Z,12.13
2023-04-16T18:55:56.993Z,14.52
2023-04-16T18:57:31.568Z,12.80
2023-04-16T18:59:04.939Z,13.05
2023-04-16T19:00:38.185Z,13.07
2023-04-16T19:02:11.432Z,14.15
2023-04-16T19:03:45.632Z,11.15
2023-04-16T19:05:21.228Z,10.02
2023-04-16T19:06:54.774Z,9.77
2023-04-16T19:08:28.223Z,9.10
2023-04-16T19:10:02.629Z,12.30
2023-04-16T19:11:35.958Z,9.60
2023-04-16T19:13:10.815Z,10.23
2023-04-16T19:16:17.501Z,9.73
2023-04-16T19:17:51.103Z,8.35
2023-04-16T19:19:24.377Z,9.30
2023-04-16T19:21:00.923Z,13.13
2023-04-16T19:22:34.235Z,8.65
2023-04-16T19:24:08.383Z,10.63
2023-04-16T19:25:41.792Z,11.77
2023-04-16T19:27:15.281Z,12.52
2023-04-16T19:28:50.131Z,11.98
2023-04-16T19:31:56.668Z,9.60
2023-04-16T19:33:29.946Z,7.70
2023-04-16T19:35:03.687Z,8.40
2023-04-16T19:36:36.997Z,7.97
2023-04-16T19:38:11.002Z,8.85
2023-04-16T19:39:44.255Z,10.07
2023-04-16T19:41:17.714Z,8.63
2023-04-16T19:42:51.455Z,9.80
2023-04-16T19:44:27.572Z,8.43
2023-04-16T19:46:01.037Z,9.18
2023-04-16T19:47:34.422Z,7.95
2023-04-16T19:49:07.902Z,8.90
2023-04-16T19:50:41.729Z,7.85
2023-04-16T19:52:15.183Z,8.38
2023-04-16T19:53:48.435Z,8.05
2023-04-16T19:55:22.621Z,9.70
2023-04-16T19:56:56.966Z,10.23
2023-04-16T19:58:30.237Z,8.82
2023-04-16T20:00:08.740Z,7.82
2023-04-16T20:01:42.064Z,11.88
2023-04-16T20:03:15.549Z,7.88
2023-04-16T20:04:48.918Z,8.05
2023-04-16T20:06:22.251Z,10.82
2023-04-16T20:07:56.311Z,8.10
2023-04-16T20:09:29.553Z,9.05
2023-04-16T20:11:03.088Z,9.10
2023-04-16T20:12:37.753Z,8.02
2023-04-16T20:14:11.200Z,9.65
2023-04-16T20:16:01.597Z,6.00
2023-04-16T20:17:34.972Z,7.53
2023-04-16T20:19:09.106Z,9.52
2023-04-16T20:20:42.774Z,8.52
2023-04-16T20:22:18.323Z,7.90
2023-04-16T20:23:51.756Z,7.78
2023-04-16T20:25:26.099Z,8.35
2023-04-16T20:26:59.684Z,8.38
2023-04-16T20:28:32.961Z,8.75
2023-04-16T20:30:07.750Z,7.50
2023-04-16T20:33:17.662Z,7.75
2023-04-16T20:34:51.018Z,9.48
2023-04-16T20:36:24.123Z,9.40
2023-04-16T20:37:57.352Z,8.20
2023-04-16T20:39:34.023Z,9.07
2023-04-16T20:41:10.892Z,7.90
2023-04-16T20:42:46.410Z,8.60
2023-04-16T20:44:25.900Z,8.25
2023-04-16T20:45:59.085Z,7.88
2023-04-16T20:47:34.736Z,9.60
2023-04-16T20:49:08.901Z,8.30
2023-04-16T20:50:42.183Z,8.40
2023-04-16T20:52:15.950Z,11.77